createdAt,value
2022-10-17T00:01:41.210Z,10.56
2022-10-17T00:04:13.396Z,10.51
2022-10-17T00:06:45.558Z,10.45
2022-10-17T00:09:17.750Z,10.39
2022-10-17T00:11:50.337Z,10.37
2022-10-17T00:14:22.415Z,10.35
2022-10-17T00:16:54.585Z,10.34
2022-10-17T00:19:26.725Z,10.30
2022-10-17T00:22:00.624Z,10.26
2022-10-17T00:24:35.278Z,10.23
2022-10-17T00:27:07.440Z,10.20
2022-10-17T00:29:39.672Z,10.17
2022-10-17T00:32:11.890Z,10.11
2022-10-17T00:34:44.204Z,10.09
2022-10-17T00:37:16.340Z,10.07
2022-10-17T00:39:51.218Z,10.07
2022-10-17T00:42:26.099Z,10.06
2022-10-17T00:45:14.509Z,10.05
2022-10-17T00:47:49.985Z,10.02
2022-10-17T00:50:23.451Z,9.99
2022-10-17T00:52:57.355Z,9.99
2022-10-17T00:55:32.587Z,9.96
2022-10-17T00:58:06.460Z,9.99
2022-10-17T01:00:39.157Z,10.00
2022-10-17T01:03:11.563Z,9.95
2022-10-17T01:05:44.598Z,9.93
2022-10-17T01:08:17.110Z,9.93
2022-10-17T01:11:02.020Z,9.93
2022-10-17T01:13:40.567Z,9.92
2022-10-17T01:16:19.987Z,9.86
2022-10-17T01:19:04.094Z,9.83
2022-10-17T01:21:48.881Z,9.79
2022-10-17T01:24:49.441Z,9.76
2022-10-17T01:27:45.442Z,9.72
2022-10-17T01:30:44.777Z,9.74
2022-10-17T01:33:23.546Z,9.77
2022-10-17T01:36:04.742Z,9.79
2022-10-17T01:38:44.106Z,9.77
2022-10-17T01:41:25.585Z,9.73
2022-10-17T01:44:05.846Z,9.75
2022-10-17T01:46:40.982Z,9.71
2022-10-17T01:49:15.717Z,9.72
2022-10-17T01:51:51.036Z,9.70
2022-10-17T01:54:28.749Z,9.73
2022-10-17T01:57:05.429Z,9.72
2022-10-17T01:59:42.397Z,9.76
2022-10-17T02:02:19.120Z,9.76
2022-10-17T02:04:53.850Z,9.78
2022-10-17T02:07:26.536Z,9.72
2022-10-17T02:09:59.309Z,9.77
2022-10-17T02:12:51.151Z,9.74
2022-10-17T02:15:42.197Z,9.70
2022-10-17T02:18:40.575Z,9.70
2022-10-17T02:21:21.784Z,9.73
2022-10-17T02:23:57.819Z,9.72
2022-10-17T02:26:35.580Z,9.68
2022-10-17T02:29:11.945Z,9.67
2022-10-17T02:31:48.554Z,9.68
2022-10-17T02:34:25.807Z,9.69
2022-10-17T02:37:02.324Z,9.69
2022-10-17T02:39:36.304Z,9.68
2022-10-17T02:42:11.944Z,9.66
2022-10-17T02:44:47.398Z,9.61
2022-10-17T02:47:24.384Z,9.59
2022-10-17T02:49:59.025Z,9.61
2022-10-17T02:52:37.078Z,9.62
2022-10-17T02:55:15.229Z,9.61
2022-10-17T02:57:51.516Z,9.58
2022-10-17T03:00:26.438Z,9.49
2022-10-17T03:02:58.689Z,9.44
2022-10-17T03:05:32.008Z,9.44
2022-10-17T03:08:04.159Z,9.43
2022-10-17T03:10:36.304Z,9.40
2022-10-17T03:13:08.431Z,9.34
2022-10-17T03:15:40.678Z,9.28
2022-10-17T03:18:12.835Z,9.22
2022-10-17T03:20:44.988Z,9.20
2022-10-17T03:23:17.556Z,9.15
2022-10-17T03:25:49.668Z,9.09
2022-10-17T03:28:21.892Z,9.04
2022-10-17T03:30:54.196Z,9.01
2022-10-17T03:33:26.581Z,9.00
2022-10-17T03:35:58.794Z,9.01
2022-10-17T03:38:30.923Z,9.00
2022-10-17T03:41:03.723Z,8.96
2022-10-17T03:43:36.307Z,8.96
2022-10-17T03:46:09.279Z,8.98
2022-10-17T03:48:41.487Z,9.00
2022-10-17T03:51:13.795Z,9.02
2022-10-17T03:53:45.965Z,9.02
2022-10-17T03:56:19.969Z,9.02
2022-10-17T03:58:52.567Z,8.98
2022-10-17T04:01:24.959Z,8.94
2022-10-17T04:03:58.579Z,8.91
2022-10-17T04:06:31.393Z,8.89
2022-10-17T04:09:03.794Z,8.89
2022-10-17T04:11:36.131Z,8.91
2022-10-17T04:14:08.665Z,8.90
2022-10-17T04:16:41.656Z,8.90
2022-10-17T04:19:15.596Z,8.88
2022-10-17T04:21:47.752Z,8.87
2022-10-17T04:24:20.128Z,8.86
2022-10-17T04:26:54.872Z,8.86
2022-10-17T04:29:27.173Z,8.88
2022-10-17T04:31:59.425Z,8.89
2022-10-17T04:34:31.576Z,8.88
2022-10-17T04:37:03.825Z,8.87
2022-10-17T04:39:35.928Z,8.80
2022-10-17T04:42:08.338Z,8.76
2022-10-17T04:44:40.869Z,8.76
2022-10-17T04:47:13.457Z,8.78
2022-10-17T04:49:45.594Z,8.78
2022-10-17T04:52:18.034Z,8.76
2022-10-17T04:54:50.259Z,8.73
2022-10-17T04:57:23.051Z,8.72
2022-10-17T04:59:55.232Z,8.74
2022-10-17T05:02:27.670Z,8.77
2022-10-17T05:05:00.605Z,8.78
2022-10-17T05:07:32.801Z,8.79
2022-10-17T05:10:05.004Z,8.81
2022-10-17T05:12:37.313Z,8.80
2022-10-17T05:15:11.534Z,8.81
2022-10-17T05:17:43.849Z,8.82
2022-10-17T05:20:16.548Z,8.93
2022-10-17T05:22:48.728Z,9.07
2022-10-17T05:25:20.949Z,9.25
2022-10-17T05:27:53.177Z,9.45
2022-10-17T05:30:25.485Z,9.77
2022-10-17T05:32:58.114Z,10.12
2022-10-17T05:35:30.292Z,10.55
2022-10-17T05:38:02.533Z,10.97
2022-10-17T05:40:34.720Z,11.40
2022-10-17T05:43:06.879Z,11.90
2022-10-17T05:45:39.111Z,12.29
2022-10-17T05:48:11.452Z,12.64
2022-10-17T05:50:43.611Z,12.96
2022-10-17T05:53:15.789Z,13.30
2022-10-17T05:55:48.324Z,13.61
2022-10-17T05:58:32.438Z,13.98
2022-10-17T06:01:12.858Z,14.31
2022-10-17T06:03:45.354Z,14.57
2022-10-17T06:06:19.012Z,14.87
2022-10-17T06:08:51.177Z,15.10
2022-10-17T06:11:23.437Z,15.29
2022-10-17T06:13:55.645Z,15.51
2022-10-17T06:16:27.896Z,15.73
2022-10-17T06:19:00.135Z,15.95
2022-10-17T06:21:34.875Z,16.20
2022-10-17T06:24:07.238Z,16.40
2022-10-17T06:26:39.461Z,16.57
2022-10-17T06:29:12.211Z,16.78
2022-10-17T06:31:44.515Z,16.95
2022-10-17T06:34:16.885Z,17.10
2022-10-17T06:36:49.631Z,17.22
2022-10-17T06:39:22.138Z,17.31
2022-10-17T06:41:54.536Z,17.41
2022-10-17T06:44:30.743Z,17.55
2022-10-17T06:47:03.558Z,17.68
2022-10-17T06:49:35.700Z,17.86
2022-10-17T06:52:08.084Z,17.95
2022-10-17T06:54:40.305Z,18.09
2022-10-17T06:57:12.430Z,18.30
2022-10-17T06:59:44.884Z,18.45
2022-10-17T07:02:17.072Z,18.54
2022-10-17T07:04:50.378Z,18.61
2022-10-17T07:07:22.502Z,18.69
2022-10-17T07:09:58.343Z,18.77
2022-10-17T07:12:30.564Z,18.92
2022-10-17T07:15:04.329Z,19.08
2022-10-17T07:17:36.940Z,19.21
2022-10-17T07:20:12.928Z,19.39
2022-10-17T07:22:45.475Z,19.61
2022-10-17T07:25:17.852Z,19.81
2022-10-17T07:27:51.297Z,19.99
2022-10-17T07:30:24.061Z,20.20
2022-10-17T07:32:57.330Z,20.37
2022-10-17T07:35:29.631Z,20.56
2022-10-17T07:38:01.775Z,20.73
2022-10-17T07:40:33.965Z,20.88
2022-10-17T07:43:06.088Z,21.02
2022-10-17T07:45:38.722Z,21.18
2022-10-17T07:48:11.057Z,21.35
2022-10-17T07:50:43.758Z,21.48
2022-10-17T07:53:16.021Z,21.61
2022-10-17T07:55:49.834Z,21.69
2022-10-17T07:58:22.038Z,21.77
2022-10-17T08:00:54.421Z,21.85
2022-10-17T08:03:26.665Z,21.93
2022-10-17T08:06:02.193Z,22.02
2022-10-17T08:08:34.546Z,22.16
2022-10-17T08:11:09.919Z,22.20
2022-10-17T08:13:43.395Z,22.26
2022-10-17T08:16:16.280Z,22.35
2022-10-17T08:18:50.977Z,22.44
2022-10-17T08:21:23.091Z,22.52
2022-10-17T08:23:55.237Z,22.39
2022-10-17T08:26:27.369Z,22.42
2022-10-17T08:28:59.561Z,22.56
2022-10-17T08:31:31.832Z,22.68
2022-10-17T08:34:03.949Z,22.83
2022-10-17T08:36:36.144Z,23.01
2022-10-17T08:39:09.320Z,23.18
2022-10-17T08:41:54.181Z,23.22
2022-10-17T08:44:37.685Z,23.26
2022-10-17T08:47:16.085Z,23.37
2022-10-17T08:49:52.560Z,23.45
2022-10-17T08:52:35.694Z,23.51
2022-10-17T08:57:55.016Z,23.72
2022-10-17T09:00:29.854Z,23.75
2022-10-17T09:03:15.385Z,23.70
2022-10-17T09:05:55.328Z,23.52
2022-10-17T09:08:42.970Z,23.41
2022-10-17T09:11:23.884Z,23.41
2022-10-17T09:14:12.402Z,23.44
2022-10-17T09:17:03.633Z,23.34
2022-10-17T09:19:40.282Z,23.32
2022-10-17T09:22:18.384Z,23.43
2022-10-17T09:24:55.862Z,23.50
2022-10-17T09:27:33.759Z,23.48
2022-10-17T09:30:44.603Z,23.46
2022-10-17T09:33:35.184Z,23.47
2022-10-17T09:36:16.358Z,23.55
2022-10-17T09:38:51.868Z,23.61
2022-10-17T09:41:44.354Z,23.72
2022-10-17T09:44:21.905Z,23.88
2022-10-17T09:47:07.375Z,23.98
2022-10-17T09:49:41.930Z,24.07
2022-10-17T09:52:18.859Z,24.12
2022-10-17T09:54:53.620Z,24.12
2022-10-17T09:57:26.498Z,24.13
2022-10-17T10:00:04.108Z,24.14
2022-10-17T10:02:40.914Z,24.15
2022-10-17T10:05:21.644Z,24.18
2022-10-17T10:08:06.702Z,24.24
2022-10-17T10:10:43.097Z,24.22
2022-10-17T10:13:22.143Z,24.20
2022-10-17T10:15:54.306Z,24.23
2022-10-17T10:18:36.614Z,24.30
2022-10-17T10:21:12.141Z,24.36
2022-10-17T10:23:45.828Z,24.18
2022-10-17T10:26:29.478Z,23.68
2022-10-17T10:29:06.106Z,23.47
2022-10-17T10:31:41.397Z,23.42
2022-10-17T10:34:22.246Z,23.41
2022-10-17T10:36:59.617Z,23.40
2022-10-17T10:39:49.867Z,23.30
2022-10-17T10:42:30.005Z,23.25
2022-10-17T10:45:07.452Z,22.94
2022-10-17T10:47:51.332Z,22.91
2022-10-17T10:50:34.125Z,23.14
2022-10-17T10:53:26.270Z,23.01
2022-10-17T10:56:02.224Z,22.81
2022-10-17T10:58:48.965Z,22.72
2022-10-17T11:01:26.580Z,22.36
2022-10-17T11:04:16.012Z,21.99
2022-10-17T11:06:50.331Z,21.81
2022-10-17T11:09:46.650Z,21.75
2022-10-17T11:12:19.836Z,21.77
2022-10-17T11:14:57.131Z,21.71
2022-10-17T11:17:36.140Z,21.66
2022-10-17T11:20:23.615Z,21.62
2022-10-17T11:23:02.186Z,21.58
2022-10-17T11:25:37.660Z,21.53
2022-10-17T11:28:16.201Z,21.42
2022-10-17T11:30:57.455Z,21.32
2022-10-17T11:33:35.565Z,21.18
2022-10-17T11:36:11.216Z,21.11
2022-10-17T11:38:48.885Z,21.01
2022-10-17T11:41:25.989Z,20.94
2022-10-17T11:44:04.269Z,20.87
2022-10-17T11:46:38.976Z,20.85
2022-10-17T11:49:20.407Z,20.79
2022-10-17T11:52:01.584Z,20.69
2022-10-17T11:54:40.591Z,20.55
2022-10-17T11:57:31.236Z,20.47
2022-10-17T12:00:20.485Z,20.38
2022-10-17T12:02:59.860Z,20.34
2022-10-17T12:05:41.701Z,20.29
2022-10-17T12:08:21.432Z,20.22
2022-10-17T12:10:59.629Z,20.13
2022-10-17T12:13:56.885Z,20.06
2022-10-17T12:16:46.870Z,19.99
2022-10-17T12:19:30.908Z,19.83
2022-10-17T12:22:07.486Z,19.78
2022-10-17T12:24:44.365Z,19.76
2022-10-17T12:27:38.519Z,19.70
2022-10-17T12:30:23.357Z,19.68
2022-10-17T12:33:22.051Z,19.68
2022-10-17T12:36:13.777Z,19.66
2022-10-17T12:38:49.916Z,19.61
2022-10-17T12:41:55.893Z,19.57
2022-10-17T12:44:40.280Z,19.52
2022-10-17T12:47:38.834Z,19.47
2022-10-17T12:50:42.217Z,19.44
2022-10-17T12:53:22.205Z,19.43
2022-10-17T12:56:02.399Z,19.43
2022-10-17T12:58:35.791Z,19.42
2022-10-17T13:01:24.371Z,19.41
2022-10-17T13:03:58.157Z,19.37
2022-10-17T13:06:32.313Z,19.34
2022-10-17T13:09:07.310Z,19.29
2022-10-17T13:11:41.196Z,19.25
2022-10-17T13:14:16.544Z,19.22
2022-10-17T13:16:57.506Z,19.20
2022-10-17T13:19:40.482Z,19.17
2022-10-17T13:22:17.894Z,19.16
2022-10-17T13:24:51.045Z,19.15
2022-10-17T13:27:29.396Z,19.15
2022-10-17T13:30:04.607Z,19.13
2022-10-17T13:32:40.900Z,19.15
2022-10-17T13:35:15.389Z,19.16
2022-10-17T13:37:53.976Z,19.17
2022-10-17T13:43:24.349Z,19.16
2022-10-17T13:46:19.349Z,19.17
2022-10-17T13:48:57.355Z,19.21
2022-10-17T13:51:30.532Z,19.22
2022-10-17T13:54:02.803Z,19.21
2022-10-17T13:56:37.065Z,19.21
2022-10-17T13:59:24.135Z,19.22
2022-10-17T14:01:57.582Z,19.21
2022-10-17T14:04:39.989Z,19.21
2022-10-17T14:07:46.227Z,19.20
2022-10-17T14:10:27.940Z,19.19
2022-10-17T14:13:01.530Z,19.18
2022-10-17T14:15:37.558Z,19.17
2022-10-17T14:18:15.965Z,19.15
2022-10-17T14:23:46.172Z,19.12
2022-10-17T14:26:21.974Z,19.11
2022-10-17T14:29:07.166Z,19.09
2022-10-17T14:31:40.221Z,19.04
2022-10-17T14:34:26.684Z,19.06
2022-10-17T14:36:59.849Z,19.04
2022-10-17T14:39:32.873Z,19.00
2022-10-17T14:42:05.253Z,18.97
2022-10-17T14:44:38.574Z,18.94
2022-10-17T14:47:42.586Z,18.96
2022-10-17T14:50:33.267Z,18.98
2022-10-17T14:53:08.025Z,18.96
2022-10-17T14:55:42.153Z,18.97
2022-10-17T14:58:32.264Z,18.96
2022-10-17T15:01:05.409Z,18.96
2022-10-17T15:03:37.916Z,18.95
2022-10-17T15:06:20.299Z,18.94
2022-10-17T15:08:52.450Z,18.91
2022-10-17T15:11:24.622Z,18.90
2022-10-17T15:13:56.841Z,18.86
2022-10-17T15:16:32.564Z,18.84
2022-10-17T15:19:05.376Z,18.80
2022-10-17T15:21:40.803Z,18.76
2022-10-17T15:24:16.029Z,18.70
2022-10-17T15:26:49.693Z,18.62
2022-10-17T15:29:21.925Z,18.56
2022-10-17T15:31:54.108Z,18.49
2022-10-17T15:34:26.249Z,18.42
2022-10-17T15:36:58.889Z,18.35
2022-10-17T15:39:30.953Z,18.27
2022-10-17T15:42:03.189Z,18.22
2022-10-17T15:44:36.662Z,18.16
2022-10-17T15:47:13.112Z,18.06
2022-10-17T15:49:46.092Z,17.97
2022-10-17T15:52:18.716Z,17.91
2022-10-17T15:54:51.400Z,17.86
2022-10-17T15:57:27.344Z,17.84
2022-10-17T16:00:01.915Z,17.81
2022-10-17T16:02:34.542Z,17.77
2022-10-17T16:05:14.959Z,17.69
2022-10-17T16:07:48.505Z,17.56
2022-10-17T16:10:21.960Z,17.43
2022-10-17T16:12:54.968Z,17.32
2022-10-17T16:15:29.104Z,17.21
2022-10-17T16:18:04.361Z,17.09
2022-10-17T16:20:40.876Z,16.97
2022-10-17T16:23:15.688Z,16.84
2022-10-17T16:25:47.792Z,16.67
2022-10-17T16:28:19.944Z,16.54
2022-10-17T16:30:52.088Z,16.44
2022-10-17T16:33:24.197Z,16.31
2022-10-17T16:35:56.303Z,16.14
2022-10-17T16:38:28.416Z,16.05
2022-10-17T16:41:00.558Z,15.96
2022-10-17T16:43:36.589Z,15.89
2022-10-17T16:46:08.830Z,15.85
2022-10-17T16:51:19.437Z,15.72
2022-10-17T16:53:54.560Z,15.66
2022-10-17T16:56:29.905Z,15.62
2022-10-17T16:59:02.736Z,15.55
2022-10-17T17:01:34.836Z,15.47
2022-10-17T17:04:09.163Z,15.42
2022-10-17T17:06:41.388Z,15.30
2022-10-17T17:09:13.728Z,15.25
2022-10-17T17:11:45.931Z,15.13
2022-10-17T17:14:18.354Z,15.04
2022-10-17T17:16:50.444Z,15.01
2022-10-17T17:19:22.574Z,14.96
2022-10-17T17:21:54.820Z,14.88
2022-10-17T17:24:26.899Z,14.83
2022-10-17T17:26:59.450Z,14.80
2022-10-17T17:29:31.692Z,14.75
2022-10-17T17:32:03.810Z,14.71
2022-10-17T17:34:38.516Z,14.67
2022-10-17T17:37:10.646Z,14.62
2022-10-17T17:39:42.737Z,14.59
2022-10-17T17:42:15.236Z,14.55
2022-10-17T17:44:48.666Z,14.51
2022-10-17T17:47:20.821Z,14.47
2022-10-17T17:49:53.021Z,14.43
2022-10-17T17:52:25.108Z,14.36
2022-10-17T17:54:57.259Z,14.34
2022-10-17T17:57:30.099Z,14.31
2022-10-17T18:00:04.284Z,14.27
2022-10-17T18:02:39.589Z,14.23
2022-10-17T18:05:14.689Z,14.19
2022-10-17T18:07:49.117Z,14.12
2022-10-17T18:10:21.315Z,14.07
2022-10-17T18:12:53.445Z,14.03
2022-10-17T18:15:25.727Z,13.98
2022-10-17T18:17:57.850Z,13.93
2022-10-17T18:20:30.133Z,13.90
2022-10-17T18:23:04.213Z,13.88
2022-10-17T18:25:36.784Z,13.85
2022-10-17T18:28:09.182Z,13.82
2022-10-17T18:30:41.467Z,13.78
2022-10-17T18:33:13.553Z,13.74
2022-10-17T18:35:45.751Z,13.72
2022-10-17T18:38:17.924Z,13.69
2022-10-17T18:40:50.831Z,13.68
2022-10-17T18:43:23.077Z,13.61
2022-10-17T18:46:04.019Z,13.63
2022-10-17T18:48:36.887Z,13.58
2022-10-17T18:51:09.355Z,13.51
2022-10-17T18:53:44.617Z,13.46
2022-10-17T18:56:18.091Z,13.43
2022-10-17T18:58:50.547Z,13.41
2022-10-17T19:01:24.956Z,13.36
2022-10-17T19:03:58.873Z,13.34
2022-10-17T19:06:33.207Z,13.30
2022-10-17T19:09:08.783Z,13.29
2022-10-17T19:11:42.185Z,13.28
2022-10-17T19:14:15.019Z,13.25
2022-10-17T19:16:49.148Z,13.20
2022-10-17T19:19:24.318Z,13.19
2022-10-17T19:21:57.229Z,13.16
2022-10-17T19:24:31.671Z,13.09
2022-10-17T19:27:05.349Z,13.05
2022-10-17T19:29:37.531Z,13.04
2022-10-17T19:32:15.615Z,13.03
2022-10-17T19:34:50.154Z,13.01
2022-10-17T19:37:22.266Z,12.98
2022-10-17T19:39:54.352Z,12.96
2022-10-17T19:42:26.500Z,12.85
2022-10-17T19:44:58.590Z,12.85
2022-10-17T19:47:30.815Z,12.82
2022-10-17T19:52:36.139Z,12.77
2022-10-17T19:55:09.336Z,12.73
2022-10-17T19:57:41.537Z,12.69
2022-10-17T20:00:15.599Z,12.67
2022-10-17T20:02:47.699Z,12.64
2022-10-17T20:05:23.705Z,12.63
2022-10-17T20:07:58.279Z,12.60
2022-10-17T20:10:30.558Z,12.45
2022-10-17T20:13:03.137Z,12.49
2022-10-17T20:15:35.264Z,12.47
2022-10-17T20:18:08.369Z,12.41
2022-10-17T20:20:40.695Z,12.43
2022-10-17T20:23:12.918Z,12.33
2022-10-17T20:25:45.303Z,12.36
2022-10-17T20:28:17.469Z,12.29
2022-10-17T20:30:49.567Z,12.35
2022-10-17T20:33:21.740Z,12.33
2022-10-17T20:35:53.928Z,12.32
2022-10-17T20:38:26.080Z,12.28
2022-10-17T20:41:01.004Z,12.22
2022-10-17T20:43:33.643Z,12.18
2022-10-17T20:46:29.348Z,12.14
2022-10-17T20:48:59.326Z,12.14
2022-10-17T20:51:31.557Z,12.11
2022-10-17T20:54:03.871Z,12.15
2022-10-17T20:56:37.366Z,12.16
2022-10-17T20:59:13.220Z,12.14
2022-10-17T21:01:44.108Z,12.09
2022-10-17T21:04:46.950Z,12.01
2022-10-17T21:07:09.152Z,11.92
2022-10-17T21:09:41.295Z,11.86
2022-10-17T21:12:21.614Z,11.88
2022-10-17T21:15:03.755Z,11.90
2022-10-17T21:17:35.911Z,11.91
2022-10-17T21:20:09.797Z,11.92
2022-10-17T21:22:41.877Z,11.91
2022-10-17T21:25:14.262Z,11.88
2022-10-17T21:27:46.455Z,11.84
2022-10-17T21:30:18.684Z,11.80
2022-10-17T21:32:54.132Z,11.76
2022-10-17T21:35:26.484Z,11.72
2022-10-17T21:37:58.576Z,11.70
2022-10-17T21:40:30.968Z,11.70
2022-10-17T21:43:03.068Z,11.71
2022-10-17T21:45:38.474Z,11.68
2022-10-17T21:48:13.067Z,11.66
2022-10-17T21:50:46.416Z,11.63
2022-10-17T21:53:18.614Z,11.59
2022-10-17T21:55:50.729Z,11.58
2022-10-17T21:58:22.935Z,11.56
2022-10-17T22:00:55.239Z,11.52
2022-10-17T22:03:27.308Z,11.49
2022-10-17T22:06:07.048Z,11.43
2022-10-17T22:08:51.568Z,11.38
2022-10-17T22:11:26.165Z,11.39
2022-10-17T22:13:59.867Z,11.40
2022-10-17T22:16:32.290Z,11.40
2022-10-17T22:19:08.605Z,11.39
2022-10-17T22:21:40.725Z,11.34
2022-10-17T22:24:16.617Z,11.31
2022-10-17T22:26:51.085Z,11.27
2022-10-17T22:29:23.244Z,11.25
2022-10-17T22:31:55.408Z,11.17
2022-10-17T22:34:27.824Z,11.20
2022-10-17T22:36:59.913Z,11.19
2022-10-17T22:39:32.124Z,11.18
2022-10-17T22:42:04.201Z,11.14
2022-10-17T22:44:36.386Z,11.13
2022-10-17T22:47:08.525Z,11.12
2022-10-17T22:49:41.835Z,11.10
2022-10-17T22:52:13.916Z,11.04
2022-10-17T22:54:46.116Z,11.00
2022-10-17T22:57:18.332Z,10.99
2022-10-17T22:59:50.612Z,11.00
2022-10-17T23:02:22.721Z,10.98
2022-10-17T23:04:54.844Z,10.94
2022-10-17T23:07:27.396Z,10.92
2022-10-17T23:09:59.657Z,10.89
2022-10-17T23:12:31.999Z,10.86
2022-10-17T23:15:05.128Z,10.84
2022-10-17T23:17:37.220Z,10.80
2022-10-17T23:20:10.844Z,10.75
2022-10-17T23:22:43.085Z,10.71
2022-10-17T23:25:15.237Z,10.66
2022-10-17T23:27:47.364Z,10.63
2022-10-17T23:30:19.910Z,10.60
2022-10-17T23:32:52.018Z,10.60
2022-10-17T23:35:24.721Z,10.61
2022-10-17T23:37:56.912Z,10.63
2022-10-17T23:40:29.372Z,10.62
2022-10-17T23:43:01.478Z,10.62
2022-10-17T23:45:36.804Z,10.63
2022-10-17T23:48:09.362Z,10.63
2022-10-17T23:50:41.479Z,10.62
2022-10-17T23:53:13.584Z,10.62
2022-10-17T23:56:03.344Z,10.62
2022-10-17T23:58:36.092Z,10.61
